Terminal Aerodrome Forecast
Issued by NWS Paducah, KY

Home | Current Version | Previous Version | Graphics & Text | Print | Product List | Glossary On
Versions: 1 2 3 4 5 6 7 8 9 10 11 12 13 14
000
FTUS43 KPAH 111700
TAFPAH
TAF
KPAH 111734Z 1118/1218 VRB03KT P6SM SCT050 SCT250
      TEMPO 1208/1212 5SM BR
     FM121400 22005KT P6SM SCT050 BKN120=

USA.gov is the U.S. government's official web portal to all federal, state and local government web resources and services.